sensor_id;sensor_type;location;lat;lon;timestamp;P1;durP1;ratioP1;P2;durP2;ratioP2
37701;SDS011;23548;51.196;6.838;2023-11-18T00:06:00;114.78;;;36.88;;
37701;SDS011;23548;51.196;6.838;2023-11-18T00:08:32;107.38;;;36.90;;
37701;SDS011;23548;51.196;6.838;2023-11-18T00:11:02;111.75;;;36.00;;
37701;SDS011;23548;51.196;6.838;2023-11-18T00:13:33;106.20;;;36.67;;
37701;SDS011;23548;51.196;6.838;2023-11-18T00:16:17;109.20;;;37.22;;
37701;SDS011;23548;51.196;6.838;2023-11-18T00:18:59;111.20;;;37.00;;
37701;SDS011;23548;51.196;6.838;2023-11-18T00:21:32;111.13;;;36.97;;
37701;SDS011;23548;51.196;6.838;2023-11-18T00:24:13;102.70;;;35.83;;
37701;SDS011;23548;51.196;6.838;2023-11-18T00:26:50;102.18;;;34.38;;
37701;SDS011;23548;51.196;6.838;2023-11-18T00:29:34;100.72;;;35.65;;
37701;SDS011;23548;51.196;6.838;2023-11-18T00:32:04;103.22;;;36.42;;
37701;SDS011;23548;51.196;6.838;2023-11-18T00:34:39;106.88;;;36.25;;
37701;SDS011;23548;51.196;6.838;2023-11-18T00:37:11;107.30;;;35.53;;
37701;SDS011;23548;51.196;6.838;2023-11-18T00:39:39;100.55;;;35.00;;
37701;SDS011;23548;51.196;6.838;2023-11-18T00:42:07;96.78;;;34.83;;
37701;SDS011;23548;51.196;6.838;2023-11-18T00:44:36;102.32;;;36.45;;
37701;SDS011;23548;51.196;6.838;2023-11-18T00:47:03;91.90;;;35.45;;
37701;SDS011;23548;51.196;6.838;2023-11-18T00:49:33;90.57;;;35.30;;
37701;SDS011;23548;51.196;6.838;2023-11-18T00:52:05;82.57;;;33.00;;
37701;SDS011;23548;51.196;6.838;2023-11-18T00:54:34;82.18;;;31.85;;
37701;SDS011;23548;51.196;6.838;2023-11-18T00:57:10;83.40;;;32.13;;
37701;SDS011;23548;51.196;6.838;2023-11-18T00:59:46;84.28;;;33.03;;
37701;SDS011;23548;51.196;6.838;2023-11-18T01:02:16;89.28;;;34.92;;
37701;SDS011;23548;51.196;6.838;2023-11-18T01:04:45;76.70;;;32.35;;
37701;SDS011;23548;51.196;6.838;2023-11-18T01:07:15;86.82;;;34.13;;
37701;SDS011;23548;51.196;6.838;2023-11-18T01:09:44;88.57;;;34.67;;
37701;SDS011;23548;51.196;6.838;2023-11-18T01:12:13;83.47;;;32.78;;
37701;SDS011;23548;51.196;6.838;2023-11-18T01:14:42;83.60;;;31.58;;
37701;SDS011;23548;51.196;6.838;2023-11-18T01:17:08;79.45;;;29.95;;
37701;SDS011;23548;51.196;6.838;2023-11-18T01:19:38;77.93;;;30.80;;
37701;SDS011;23548;51.196;6.838;2023-11-18T01:22:04;72.80;;;29.40;;
37701;SDS011;23548;51.196;6.838;2023-11-18T01:24:31;66.32;;;29.20;;
37701;SDS011;23548;51.196;6.838;2023-11-18T01:26:57;68.28;;;30.48;;
37701;SDS011;23548;51.196;6.838;2023-11-18T01:29:24;71.70;;;29.80;;
37701;SDS011;23548;51.196;6.838;2023-11-18T01:31:50;70.38;;;30.45;;
37701;SDS011;23548;51.196;6.838;2023-11-18T01:34:17;69.78;;;29.88;;
37701;SDS011;23548;51.196;6.838;2023-11-18T01:36:46;73.30;;;29.65;;
37701;SDS011;23548;51.196;6.838;2023-11-18T01:39:14;69.43;;;30.30;;
37701;SDS011;23548;51.196;6.838;2023-11-18T01:41:42;69.50;;;28.20;;
37701;SDS011;23548;51.196;6.838;2023-11-18T01:44:08;69.03;;;28.33;;
37701;SDS011;23548;51.196;6.838;2023-11-18T01:46:34;69.53;;;28.95;;
37701;SDS011;23548;51.196;6.838;2023-11-18T01:49:01;70.07;;;28.40;;
37701;SDS011;23548;51.196;6.838;2023-11-18T01:51:29;67.85;;;29.17;;
37701;SDS011;23548;51.196;6.838;2023-11-18T01:53:55;68.47;;;30.13;;
37701;SDS011;23548;51.196;6.838;2023-11-18T01:56:24;65.30;;;28.55;;
37701;SDS011;23548;51.196;6.838;2023-11-18T01:58:52;65.03;;;28.98;;
37701;SDS011;23548;51.196;6.838;2023-11-18T02:01:18;67.38;;;27.35;;
37701;SDS011;23548;51.196;6.838;2023-11-18T02:03:45;67.32;;;28.88;;
37701;SDS011;23548;51.196;6.838;2023-11-18T02:09:34;63.88;;;27.67;;
37701;SDS011;23548;51.196;6.838;2023-11-18T02:14:49;68.25;;;27.88;;
37701;SDS011;23548;51.196;6.838;2023-11-18T02:17:17;66.95;;;28.20;;
37701;SDS011;23548;51.196;6.838;2023-11-18T02:19:48;60.80;;;26.00;;
37701;SDS011;23548;51.196;6.838;2023-11-18T02:22:15;59.47;;;27.33;;
37701;SDS011;23548;51.196;6.838;2023-11-18T02:24:41;62.13;;;26.77;;
37701;SDS011;23548;51.196;6.838;2023-11-18T02:27:07;62.88;;;28.10;;
37701;SDS011;23548;51.196;6.838;2023-11-18T02:29:38;66.78;;;28.63;;
37701;SDS011;23548;51.196;6.838;2023-11-18T02:37:53;61.85;;;27.02;;
37701;SDS011;23548;51.196;6.838;2023-11-18T02:40:22;61.13;;;28.02;;
37701;SDS011;23548;51.196;6.838;2023-11-18T02:42:55;62.97;;;28.35;;
37701;SDS011;23548;51.196;6.838;2023-11-18T02:45:24;62.45;;;26.80;;
37701;SDS011;23548;51.196;6.838;2023-11-18T02:47:50;52.88;;;24.83;;
37701;SDS011;23548;51.196;6.838;2023-11-18T02:50:16;58.42;;;25.98;;
37701;SDS011;23548;51.196;6.838;2023-11-18T02:52:44;54.13;;;24.90;;
37701;SDS011;23548;51.196;6.838;2023-11-18T02:55:10;54.45;;;25.42;;
37701;SDS011;23548;51.196;6.838;2023-11-18T02:57:39;51.97;;;24.60;;
37701;SDS011;23548;51.196;6.838;2023-11-18T03:00:05;51.53;;;23.95;;
37701;SDS011;23548;51.196;6.838;2023-11-18T03:02:36;51.95;;;25.45;;
37701;SDS011;23548;51.196;6.838;2023-11-18T03:05:05;52.42;;;24.98;;
37701;SDS011;23548;51.196;6.838;2023-11-18T03:07:32;49.80;;;22.90;;
37701;SDS011;23548;51.196;6.838;2023-11-18T03:09:58;47.55;;;24.38;;
37701;SDS011;23548;51.196;6.838;2023-11-18T03:12:25;46.80;;;24.25;;
37701;SDS011;23548;51.196;6.838;2023-11-18T03:14:53;46.65;;;22.73;;
37701;SDS011;23548;51.196;6.838;2023-11-18T03:17:19;48.78;;;24.08;;
37701;SDS011;23548;51.196;6.838;2023-11-18T03:19:45;45.65;;;23.30;;
37701;SDS011;23548;51.196;6.838;2023-11-18T03:22:11;50.35;;;22.52;;
37701;SDS011;23548;51.196;6.838;2023-11-18T03:24:38;44.45;;;22.70;;
37701;SDS011;23548;51.196;6.838;2023-11-18T03:27:04;49.45;;;23.85;;
37701;SDS011;23548;51.196;6.838;2023-11-18T03:29:30;45.67;;;22.58;;
37701;SDS011;23548;51.196;6.838;2023-11-18T03:31:56;43.97;;;23.02;;
37701;SDS011;23548;51.196;6.838;2023-11-18T03:34:22;52.03;;;24.13;;
37701;SDS011;23548;51.196;6.838;2023-11-18T03:36:48;42.72;;;21.58;;
37701;SDS011;23548;51.196;6.838;2023-11-18T03:39:14;47.97;;;23.13;;
37701;SDS011;23548;51.196;6.838;2023-11-18T03:41:40;47.10;;;22.70;;
37701;SDS011;23548;51.196;6.838;2023-11-18T03:44:09;48.97;;;23.40;;
37701;SDS011;23548;51.196;6.838;2023-11-18T03:46:36;42.38;;;22.48;;
37701;SDS011;23548;51.196;6.838;2023-11-18T03:49:02;43.08;;;22.10;;
37701;SDS011;23548;51.196;6.838;2023-11-18T03:51:28;42.17;;;21.95;;
37701;SDS011;23548;51.196;6.838;2023-11-18T03:53:54;47.00;;;23.20;;
37701;SDS011;23548;51.196;6.838;2023-11-18T03:56:20;45.15;;;21.83;;
37701;SDS011;23548;51.196;6.838;2023-11-18T03:58:46;47.20;;;22.75;;
37701;SDS011;23548;51.196;6.838;2023-11-18T04:01:22;51.33;;;23.08;;
37701;SDS011;23548;51.196;6.838;2023-11-18T04:03:52;48.03;;;23.25;;
37701;SDS011;23548;51.196;6.838;2023-11-18T04:06:18;49.83;;;24.65;;
37701;SDS011;23548;51.196;6.838;2023-11-18T04:08:47;49.22;;;23.13;;
37701;SDS011;23548;51.196;6.838;2023-11-18T04:11:13;50.05;;;23.15;;
37701;SDS011;23548;51.196;6.838;2023-11-18T04:13:43;51.80;;;23.23;;
37701;SDS011;23548;51.196;6.838;2023-11-18T04:16:10;47.95;;;23.92;;
37701;SDS011;23548;51.196;6.838;2023-11-18T04:18:38;44.88;;;22.85;;
37701;SDS011;23548;51.196;6.838;2023-11-18T04:21:10;46.55;;;22.88;;
37701;SDS011;23548;51.196;6.838;2023-11-18T04:23:38;51.58;;;23.10;;
37701;SDS011;23548;51.196;6.838;2023-11-18T04:26:06;45.72;;;21.30;;
37701;SDS011;23548;51.196;6.838;2023-11-18T04:28:32;46.92;;;22.50;;
37701;SDS011;23548;51.196;6.838;2023-11-18T04:30:58;44.42;;;21.52;;
37701;SDS011;23548;51.196;6.838;2023-11-18T04:33:25;47.75;;;22.35;;
37701;SDS011;23548;51.196;6.838;2023-11-18T04:35:52;47.83;;;22.45;;
37701;SDS011;23548;51.196;6.838;2023-11-18T04:38:18;47.83;;;22.65;;
37701;SDS011;23548;51.196;6.838;2023-11-18T04:40:44;46.05;;;22.40;;
37701;SDS011;23548;51.196;6.838;2023-11-18T04:43:13;49.45;;;22.25;;
37701;SDS011;23548;51.196;6.838;2023-11-18T04:45:40;49.70;;;23.67;;
37701;SDS011;23548;51.196;6.838;2023-11-18T04:48:07;47.03;;;21.77;;
37701;SDS011;23548;51.196;6.838;2023-11-18T04:50:34;46.80;;;21.20;;
37701;SDS011;23548;51.196;6.838;2023-11-18T04:53:00;47.60;;;22.23;;
37701;SDS011;23548;51.196;6.838;2023-11-18T04:55:26;51.08;;;23.02;;
37701;SDS011;23548;51.196;6.838;2023-11-18T04:57:52;45.33;;;21.75;;
37701;SDS011;23548;51.196;6.838;2023-11-18T05:00:17;49.67;;;22.85;;
37701;SDS011;23548;51.196;6.838;2023-11-18T05:02:45;52.22;;;21.88;;
37701;SDS011;23548;51.196;6.838;2023-11-18T05:05:14;45.70;;;21.77;;
37701;SDS011;23548;51.196;6.838;2023-11-18T05:07:41;48.33;;;22.67;;
37701;SDS011;23548;51.196;6.838;2023-11-18T05:10:07;51.20;;;23.25;;
37701;SDS011;23548;51.196;6.838;2023-11-18T05:12:35;47.25;;;21.80;;
37701;SDS011;23548;51.196;6.838;2023-11-18T05:15:01;47.53;;;21.98;;
37701;SDS011;23548;51.196;6.838;2023-11-18T05:17:31;46.28;;;22.10;;
37701;SDS011;23548;51.196;6.838;2023-11-18T05:19:57;47.75;;;23.10;;
37701;SDS011;23548;51.196;6.838;2023-11-18T05:22:23;49.33;;;22.45;;
37701;SDS011;23548;51.196;6.838;2023-11-18T05:24:48;47.42;;;22.42;;
37701;SDS011;23548;51.196;6.838;2023-11-18T05:27:14;47.60;;;22.90;;
37701;SDS011;23548;51.196;6.838;2023-11-18T05:29:42;49.60;;;23.30;;
37701;SDS011;23548;51.196;6.838;2023-11-18T05:32:10;48.33;;;22.15;;
37701;SDS011;23548;51.196;6.838;2023-11-18T05:34:36;47.70;;;21.80;;
37701;SDS011;23548;51.196;6.838;2023-11-18T05:37:01;51.15;;;23.83;;
37701;SDS011;23548;51.196;6.838;2023-11-18T05:39:27;50.85;;;23.00;;
37701;SDS011;23548;51.196;6.838;2023-11-18T05:41:56;48.35;;;22.48;;
37701;SDS011;23548;51.196;6.838;2023-11-18T05:44:23;47.85;;;21.95;;
37701;SDS011;23548;51.196;6.838;2023-11-18T05:46:58;49.45;;;23.25;;
37701;SDS011;23548;51.196;6.838;2023-11-18T05:49:24;53.55;;;24.13;;
37701;SDS011;23548;51.196;6.838;2023-11-18T05:51:50;50.17;;;22.70;;
37701;SDS011;23548;51.196;6.838;2023-11-18T05:54:17;50.00;;;22.73;;
37701;SDS011;23548;51.196;6.838;2023-11-18T05:56:43;47.13;;;22.88;;
37701;SDS011;23548;51.196;6.838;2023-11-18T05:59:09;47.00;;;22.25;;
37701;SDS011;23548;51.196;6.838;2023-11-18T06:01:35;46.28;;;22.00;;
37701;SDS011;23548;51.196;6.838;2023-11-18T06:04:02;49.35;;;22.85;;
37701;SDS011;23548;51.196;6.838;2023-11-18T06:06:28;47.45;;;22.42;;
37701;SDS011;23548;51.196;6.838;2023-11-18T06:08:56;49.85;;;23.52;;
37701;SDS011;23548;51.196;6.838;2023-11-18T06:11:24;47.88;;;22.75;;
37701;SDS011;23548;51.196;6.838;2023-11-18T06:13:50;53.30;;;23.35;;
37701;SDS011;23548;51.196;6.838;2023-11-18T06:18:45;43.28;;;21.92;;
37701;SDS011;23548;51.196;6.838;2023-11-18T06:21:12;46.40;;;22.27;;
37701;SDS011;23548;51.196;6.838;2023-11-18T06:23:45;49.33;;;22.67;;
37701;SDS011;23548;51.196;6.838;2023-11-18T06:26:12;46.38;;;22.05;;
37701;SDS011;23548;51.196;6.838;2023-11-18T06:28:43;45.00;;;22.17;;
37701;SDS011;23548;51.196;6.838;2023-11-18T06:31:10;46.38;;;22.88;;
37701;SDS011;23548;51.196;6.838;2023-11-18T06:33:39;48.55;;;23.45;;
37701;SDS011;23548;51.196;6.838;2023-11-18T06:36:17;45.17;;;23.10;;
37701;SDS011;23548;51.196;6.838;2023-11-18T06:38:47;50.67;;;23.70;;
37701;SDS011;23548;51.196;6.838;2023-11-18T06:41:17;44.45;;;23.10;;
37701;SDS011;23548;51.196;6.838;2023-11-18T06:43:45;46.53;;;23.08;;
37701;SDS011;23548;51.196;6.838;2023-11-18T06:46:25;47.10;;;22.65;;
37701;SDS011;23548;51.196;6.838;2023-11-18T06:48:54;48.60;;;23.40;;
37701;SDS011;23548;51.196;6.838;2023-11-18T06:51:23;45.92;;;22.85;;
37701;SDS011;23548;51.196;6.838;2023-11-18T06:53:51;50.10;;;23.98;;
37701;SDS011;23548;51.196;6.838;2023-11-18T06:56:17;41.72;;;21.30;;
37701;SDS011;23548;51.196;6.838;2023-11-18T06:58:43;46.25;;;22.33;;
37701;SDS011;23548;51.196;6.838;2023-11-18T07:01:09;47.47;;;23.60;;
37701;SDS011;23548;51.196;6.838;2023-11-18T07:03:38;46.60;;;22.95;;
37701;SDS011;23548;51.196;6.838;2023-11-18T07:06:06;42.90;;;21.50;;
37701;SDS011;23548;51.196;6.838;2023-11-18T07:08:32;41.88;;;22.48;;
37701;SDS011;23548;51.196;6.838;2023-11-18T07:11:00;42.30;;;21.23;;
37701;SDS011;23548;51.196;6.838;2023-11-18T07:13:26;43.88;;;21.92;;
37701;SDS011;23548;51.196;6.838;2023-11-18T07:15:55;45.33;;;22.05;;
37701;SDS011;23548;51.196;6.838;2023-11-18T07:18:23;44.60;;;21.10;;
37701;SDS011;23548;51.196;6.838;2023-11-18T07:20:49;46.85;;;22.02;;
37701;SDS011;23548;51.196;6.838;2023-11-18T07:23:17;45.50;;;22.75;;
37701;SDS011;23548;51.196;6.838;2023-11-18T07:25:44;45.45;;;22.58;;
37701;SDS011;23548;51.196;6.838;2023-11-18T07:28:13;38.88;;;21.63;;
37701;SDS011;23548;51.196;6.838;2023-11-18T07:30:42;40.05;;;21.75;;
37701;SDS011;23548;51.196;6.838;2023-11-18T07:33:21;37.90;;;21.05;;
37701;SDS011;23548;51.196;6.838;2023-11-18T07:35:48;41.40;;;21.67;;
37701;SDS011;23548;51.196;6.838;2023-11-18T07:38:14;40.30;;;21.05;;
37701;SDS011;23548;51.196;6.838;2023-11-18T07:40:41;41.42;;;21.77;;
37701;SDS011;23548;51.196;6.838;2023-11-18T07:43:13;40.53;;;21.95;;
37701;SDS011;23548;51.196;6.838;2023-11-18T07:45:40;39.67;;;20.23;;
37701;SDS011;23548;51.196;6.838;2023-11-18T07:48:07;38.55;;;20.58;;
37701;SDS011;23548;51.196;6.838;2023-11-18T07:50:38;39.70;;;20.95;;
37701;SDS011;23548;51.196;6.838;2023-11-18T07:53:09;35.70;;;20.48;;
37701;SDS011;23548;51.196;6.838;2023-11-18T07:55:36;44.70;;;20.85;;
37701;SDS011;23548;51.196;6.838;2023-11-18T07:58:05;35.95;;;20.35;;
37701;SDS011;23548;51.196;6.838;2023-11-18T08:00:37;38.78;;;20.40;;
37701;SDS011;23548;51.196;6.838;2023-11-18T08:03:07;37.13;;;20.63;;
37701;SDS011;23548;51.196;6.838;2023-11-18T08:05:40;40.20;;;19.70;;
37701;SDS011;23548;51.196;6.838;2023-11-18T08:08:11;35.55;;;20.05;;
37701;SDS011;23548;51.196;6.838;2023-11-18T08:10:39;38.05;;;20.20;;
37701;SDS011;23548;51.196;6.838;2023-11-18T08:13:09;33.75;;;19.35;;
37701;SDS011;23548;51.196;6.838;2023-11-18T08:15:38;31.77;;;19.65;;
37701;SDS011;23548;51.196;6.838;2023-11-18T08:18:10;34.15;;;19.15;;
37701;SDS011;23548;51.196;6.838;2023-11-18T08:20:36;33.00;;;18.90;;
37701;SDS011;23548;51.196;6.838;2023-11-18T08:23:02;38.78;;;18.63;;
37701;SDS011;23548;51.196;6.838;2023-11-18T08:25:30;39.28;;;18.23;;
37701;SDS011;23548;51.196;6.838;2023-11-18T08:28:02;33.95;;;18.83;;
37701;SDS011;23548;51.196;6.838;2023-11-18T08:30:34;29.02;;;16.65;;
37701;SDS011;23548;51.196;6.838;2023-11-18T08:33:13;31.55;;;17.83;;
37701;SDS011;23548;51.196;6.838;2023-11-18T08:35:46;27.77;;;15.95;;
37701;SDS011;23548;51.196;6.838;2023-11-18T08:38:19;28.30;;;16.63;;
37701;SDS011;23548;51.196;6.838;2023-11-18T08:40:46;28.13;;;16.20;;
37701;SDS011;23548;51.196;6.838;2023-11-18T08:43:17;29.65;;;16.90;;
37701;SDS011;23548;51.196;6.838;2023-11-18T08:45:50;28.95;;;16.63;;
37701;SDS011;23548;51.196;6.838;2023-11-18T08:48:22;25.58;;;16.00;;
37701;SDS011;23548;51.196;6.838;2023-11-18T08:50:56;26.20;;;14.63;;
37701;SDS011;23548;51.196;6.838;2023-11-18T08:53:25;26.10;;;15.52;;
37701;SDS011;23548;51.196;6.838;2023-11-18T08:55:52;24.90;;;14.35;;
37701;SDS011;23548;51.196;6.838;2023-11-18T08:58:19;24.08;;;14.48;;
37701;SDS011;23548;51.196;6.838;2023-11-18T09:00:50;25.38;;;14.48;;
37701;SDS011;23548;51.196;6.838;2023-11-18T09:03:18;24.23;;;14.90;;
37701;SDS011;23548;51.196;6.838;2023-11-18T09:05:57;25.02;;;14.45;;
37701;SDS011;23548;51.196;6.838;2023-11-18T09:08:27;25.52;;;14.27;;
37701;SDS011;23548;51.196;6.838;2023-11-18T09:10:54;23.00;;;13.63;;
37701;SDS011;23548;51.196;6.838;2023-11-18T09:13:22;21.35;;;13.95;;
37701;SDS011;23548;51.196;6.838;2023-11-18T09:15:58;21.42;;;13.32;;
37701;SDS011;23548;51.196;6.838;2023-11-18T09:18:28;22.83;;;13.27;;
37701;SDS011;23548;51.196;6.838;2023-11-18T09:20:58;21.10;;;12.85;;
37701;SDS011;23548;51.196;6.838;2023-11-18T09:23:26;22.40;;;13.50;;
37701;SDS011;23548;51.196;6.838;2023-11-18T09:25:52;23.17;;;13.05;;
37701;SDS011;23548;51.196;6.838;2023-11-18T09:28:19;20.25;;;12.93;;
37701;SDS011;23548;51.196;6.838;2023-11-18T09:30:46;18.52;;;11.98;;
37701;SDS011;23548;51.196;6.838;2023-11-18T09:33:16;19.85;;;13.27;;
37701;SDS011;23548;51.196;6.838;2023-11-18T09:35:50;20.23;;;12.40;;
37701;SDS011;23548;51.196;6.838;2023-11-18T09:38:20;19.58;;;11.65;;
37701;SDS011;23548;51.196;6.838;2023-11-18T09:40:47;22.58;;;12.82;;
37701;SDS011;23548;51.196;6.838;2023-11-18T09:43:14;17.63;;;11.60;;
37701;SDS011;23548;51.196;6.838;2023-11-18T09:45:43;18.77;;;11.32;;
37701;SDS011;23548;51.196;6.838;2023-11-18T09:48:12;18.67;;;11.85;;
37701;SDS011;23548;51.196;6.838;2023-11-18T09:50:45;22.80;;;11.70;;
37701;SDS011;23548;51.196;6.838;2023-11-18T09:53:13;19.33;;;12.20;;
37701;SDS011;23548;51.196;6.838;2023-11-18T09:55:49;23.80;;;14.20;;
37701;SDS011;23548;51.196;6.838;2023-11-18T09:58:20;20.67;;;12.68;;
37701;SDS011;23548;51.196;6.838;2023-11-18T10:00:49;16.95;;;11.98;;
37701;SDS011;23548;51.196;6.838;2023-11-18T10:03:22;17.77;;;11.77;;
37701;SDS011;23548;51.196;6.838;2023-11-18T10:05:48;18.77;;;12.15;;
37701;SDS011;23548;51.196;6.838;2023-11-18T10:08:19;19.23;;;11.48;;
37701;SDS011;23548;51.196;6.838;2023-11-18T10:10:50;21.15;;;12.55;;
37701;SDS011;23548;51.196;6.838;2023-11-18T10:13:17;17.95;;;11.88;;
37701;SDS011;23548;51.196;6.838;2023-11-18T10:15:49;17.77;;;11.70;;
37701;SDS011;23548;51.196;6.838;2023-11-18T10:18:18;19.33;;;11.48;;
37701;SDS011;23548;51.196;6.838;2023-11-18T10:20:49;17.08;;;11.38;;
37701;SDS011;23548;51.196;6.838;2023-11-18T10:23:19;17.10;;;10.80;;
37701;SDS011;23548;51.196;6.838;2023-11-18T10:25:52;16.48;;;10.65;;
37701;SDS011;23548;51.196;6.838;2023-11-18T10:28:22;16.15;;;10.40;;
37701;SDS011;23548;51.196;6.838;2023-11-18T10:30:58;17.90;;;11.30;;
37701;SDS011;23548;51.196;6.838;2023-11-18T10:33:29;20.23;;;11.52;;
37701;SDS011;23548;51.196;6.838;2023-11-18T10:35:56;18.30;;;10.68;;
37701;SDS011;23548;51.196;6.838;2023-11-18T10:38:23;15.75;;;10.77;;
37701;SDS011;23548;51.196;6.838;2023-11-18T10:40:55;20.85;;;12.15;;
37701;SDS011;23548;51.196;6.838;2023-11-18T10:43:23;19.10;;;11.05;;
37701;SDS011;23548;51.196;6.838;2023-11-18T10:45:52;16.38;;;11.13;;
37701;SDS011;23548;51.196;6.838;2023-11-18T10:48:28;19.35;;;11.38;;
37701;SDS011;23548;51.196;6.838;2023-11-18T10:50:55;21.65;;;12.00;;
37701;SDS011;23548;51.196;6.838;2023-11-18T10:53:24;18.55;;;10.68;;
37701;SDS011;23548;51.196;6.838;2023-11-18T10:55:51;17.70;;;11.45;;
37701;SDS011;23548;51.196;6.838;2023-11-18T10:58:17;19.95;;;11.43;;
37701;SDS011;23548;51.196;6.838;2023-11-18T11:00:48;18.92;;;10.85;;
37701;SDS011;23548;51.196;6.838;2023-11-18T11:03:25;18.08;;;11.48;;
37701;SDS011;23548;51.196;6.838;2023-11-18T11:05:51;18.50;;;11.93;;
37701;SDS011;23548;51.196;6.838;2023-11-18T11:08:19;22.15;;;12.43;;
37701;SDS011;23548;51.196;6.838;2023-11-18T11:10:45;18.58;;;11.88;;
37701;SDS011;23548;51.196;6.838;2023-11-18T11:13:14;22.42;;;11.50;;
37701;SDS011;23548;51.196;6.838;2023-11-18T11:15:43;21.95;;;11.05;;
37701;SDS011;23548;51.196;6.838;2023-11-18T11:18:14;17.20;;;11.55;;
37701;SDS011;23548;51.196;6.838;2023-11-18T11:23:49;16.75;;;10.90;;
37701;SDS011;23548;51.196;6.838;2023-11-18T11:26:26;16.58;;;10.32;;
37701;SDS011;23548;51.196;6.838;2023-11-18T11:29:07;16.35;;;11.32;;
37701;SDS011;23548;51.196;6.838;2023-11-18T11:31:55;15.35;;;10.30;;
37701;SDS011;23548;51.196;6.838;2023-11-18T11:34:40;17.80;;;10.98;;
37701;SDS011;23548;51.196;6.838;2023-11-18T11:37:11;19.30;;;10.52;;
37701;SDS011;23548;51.196;6.838;2023-11-18T11:39:40;16.48;;;11.20;;
37701;SDS011;23548;51.196;6.838;2023-11-18T11:42:11;19.85;;;12.05;;
37701;SDS011;23548;51.196;6.838;2023-11-18T11:44:42;19.27;;;11.60;;
37701;SDS011;23548;51.196;6.838;2023-11-18T11:47:09;17.75;;;11.30;;
37701;SDS011;23548;51.196;6.838;2023-11-18T11:49:47;16.83;;;10.27;;
37701;SDS011;23548;51.196;6.838;2023-11-18T11:52:30;20.15;;;10.65;;
37701;SDS011;23548;51.196;6.838;2023-11-18T11:58:03;17.38;;;10.77;;
37701;SDS011;23548;51.196;6.838;2023-11-18T12:00:31;15.38;;;9.77;;
37701;SDS011;23548;51.196;6.838;2023-11-18T12:03:00;14.75;;;10.10;;
37701;SDS011;23548;51.196;6.838;2023-11-18T12:05:29;15.65;;;10.13;;
37701;SDS011;23548;51.196;6.838;2023-11-18T12:07:58;16.25;;;11.13;;
37701;SDS011;23548;51.196;6.838;2023-11-18T12:10:29;17.70;;;10.90;;
37701;SDS011;23548;51.196;6.838;2023-11-18T12:13:11;18.48;;;11.00;;
37701;SDS011;23548;51.196;6.838;2023-11-18T12:15:48;13.95;;;9.90;;
37701;SDS011;23548;51.196;6.838;2023-11-18T12:18:28;20.52;;;13.50;;
37701;SDS011;23548;51.196;6.838;2023-11-18T12:20:59;16.90;;;10.15;;
37701;SDS011;23548;51.196;6.838;2023-11-18T12:23:29;16.10;;;10.98;;
37701;SDS011;23548;51.196;6.838;2023-11-18T12:25:59;20.92;;;11.25;;
37701;SDS011;23548;51.196;6.838;2023-11-18T12:28:28;18.15;;;11.73;;
37701;SDS011;23548;51.196;6.838;2023-11-18T12:31:03;17.55;;;11.20;;
37701;SDS011;23548;51.196;6.838;2023-11-18T12:42:03;16.15;;;11.10;;
37701;SDS011;23548;51.196;6.838;2023-11-18T12:44:37;18.58;;;11.73;;
37701;SDS011;23548;51.196;6.838;2023-11-18T12:47:17;24.58;;;11.65;;
37701;SDS011;23548;51.196;6.838;2023-11-18T12:49:47;21.35;;;11.50;;
37701;SDS011;23548;51.196;6.838;2023-11-18T12:52:20;16.48;;;10.93;;
37701;SDS011;23548;51.196;6.838;2023-11-18T12:54:47;16.92;;;10.30;;
37701;SDS011;23548;51.196;6.838;2023-11-18T12:57:26;14.52;;;9.82;;
37701;SDS011;23548;51.196;6.838;2023-11-18T12:59:57;18.48;;;9.68;;
37701;SDS011;23548;51.196;6.838;2023-11-18T13:02:22;15.13;;;9.20;;
37701;SDS011;23548;51.196;6.838;2023-11-18T13:04:51;15.15;;;9.35;;
37701;SDS011;23548;51.196;6.838;2023-11-18T13:07:21;15.05;;;9.73;;
37701;SDS011;23548;51.196;6.838;2023-11-18T13:09:47;14.40;;;9.93;;
37701;SDS011;23548;51.196;6.838;2023-11-18T13:12:14;17.80;;;10.45;;
37701;SDS011;23548;51.196;6.838;2023-11-18T13:14:40;17.10;;;9.00;;
37701;SDS011;23548;51.196;6.838;2023-11-18T13:17:13;13.05;;;8.50;;
37701;SDS011;23548;51.196;6.838;2023-11-18T13:19:43;16.17;;;9.45;;
37701;SDS011;23548;51.196;6.838;2023-11-18T13:22:13;16.98;;;10.05;;
37701;SDS011;23548;51.196;6.838;2023-11-18T13:24:40;17.85;;;10.07;;
37701;SDS011;23548;51.196;6.838;2023-11-18T13:27:09;12.80;;;8.85;;
37701;SDS011;23548;51.196;6.838;2023-11-18T13:29:43;13.13;;;8.65;;
37701;SDS011;23548;51.196;6.838;2023-11-18T13:32:18;14.40;;;8.82;;
37701;SDS011;23548;51.196;6.838;2023-11-18T13:34:48;14.13;;;8.43;;
37701;SDS011;23548;51.196;6.838;2023-11-18T13:37:15;11.80;;;7.80;;
37701;SDS011;23548;51.196;6.838;2023-11-18T13:39:43;18.25;;;8.32;;
37701;SDS011;23548;51.196;6.838;2023-11-18T13:42:18;18.25;;;8.93;;
37701;SDS011;23548;51.196;6.838;2023-11-18T13:44:45;12.90;;;7.60;;
37701;SDS011;23548;51.196;6.838;2023-11-18T13:47:13;10.55;;;7.15;;
37701;SDS011;23548;51.196;6.838;2023-11-18T13:49:42;13.50;;;7.70;;
37701;SDS011;23548;51.196;6.838;2023-11-18T13:52:09;12.13;;;7.57;;
37701;SDS011;23548;51.196;6.838;2023-11-18T13:54:39;12.85;;;6.63;;
37701;SDS011;23548;51.196;6.838;2023-11-18T13:57:07;15.57;;;6.90;;
37701;SDS011;23548;51.196;6.838;2023-11-18T13:59:34;11.68;;;6.53;;
37701;SDS011;23548;51.196;6.838;2023-11-18T14:02:01;13.20;;;6.20;;
37701;SDS011;23548;51.196;6.838;2023-11-18T14:04:30;10.57;;;6.15;;
37701;SDS011;23548;51.196;6.838;2023-11-18T14:06:58;9.98;;;5.75;;
37701;SDS011;23548;51.196;6.838;2023-11-18T14:09:27;11.50;;;5.88;;
37701;SDS011;23548;51.196;6.838;2023-11-18T14:11:55;10.13;;;6.00;;
37701;SDS011;23548;51.196;6.838;2023-11-18T14:14:21;8.32;;;5.13;;
37701;SDS011;23548;51.196;6.838;2023-11-18T14:16:49;10.02;;;5.72;;
37701;SDS011;23548;51.196;6.838;2023-11-18T14:19:18;10.77;;;5.47;;
37701;SDS011;23548;51.196;6.838;2023-11-18T14:21:44;10.18;;;5.38;;
37701;SDS011;23548;51.196;6.838;2023-11-18T14:24:10;15.27;;;5.50;;
37701;SDS011;23548;51.196;6.838;2023-11-18T14:26:37;10.75;;;6.63;;
37701;SDS011;23548;51.196;6.838;2023-11-18T14:29:05;12.15;;;6.10;;
37701;SDS011;23548;51.196;6.838;2023-11-18T14:31:34;10.43;;;6.00;;
37701;SDS011;23548;51.196;6.838;2023-11-18T14:34:00;9.88;;;5.63;;
37701;SDS011;23548;51.196;6.838;2023-11-18T14:36:26;9.93;;;5.75;;
37701;SDS011;23548;51.196;6.838;2023-11-18T14:38:52;9.48;;;5.47;;
37701;SDS011;23548;51.196;6.838;2023-11-18T14:41:18;7.97;;;5.53;;
37701;SDS011;23548;51.196;6.838;2023-11-18T14:43:45;10.05;;;5.28;;
37701;SDS011;23548;51.196;6.838;2023-11-18T14:46:11;13.00;;;5.57;;
37701;SDS011;23548;51.196;6.838;2023-11-18T14:48:38;14.88;;;6.43;;
37701;SDS011;23548;51.196;6.838;2023-11-18T14:51:04;12.75;;;6.20;;
37701;SDS011;23548;51.196;6.838;2023-11-18T14:53:32;12.45;;;6.30;;
37701;SDS011;23548;51.196;6.838;2023-11-18T14:55:59;11.57;;;6.80;;
37701;SDS011;23548;51.196;6.838;2023-11-18T14:58:25;14.75;;;5.95;;
37701;SDS011;23548;51.196;6.838;2023-11-18T15:00:51;10.80;;;6.68;;
37701;SDS011;23548;51.196;6.838;2023-11-18T15:03:17;11.45;;;6.82;;
37701;SDS011;23548;51.196;6.838;2023-11-18T15:05:43;14.88;;;6.97;;
37701;SDS011;23548;51.196;6.838;2023-11-18T15:08:09;13.95;;;7.32;;